Time;durP1;ratioP1;P1;durP2;ratioP2;P2;SDS_P1;SDS_P2;PMS_P1;PMS_P2;Temp;Humidity;BMP_temperature;BMP_pressure;BME280_temperature;BME280_humidity;BME280_pressure;Samples;Min_cycle;Max_cycle;Signal;HPM_P1;HPM_P2
2022/11/22 00:07:20;;;;;;;2.87;0.97;;;;;;;6.00;100.00;95889.09;18374720;32;20063;-63
2022/11/22 00:17:42;;;;;;;2.83;0.60;;;;;;;5.88;100.00;95897.47;18296779;32;20446;-63
2022/11/22 00:27:47;;;;;;;5.33;1.30;;;;;;;5.82;100.00;95918.19;18309169;32;20085;-63
2022/11/22 00:37:49;;;;;;;6.40;1.40;;;;;;;5.84;100.00;95923.25;18309078;32;20092;-63
2022/11/22 00:48:24;;;;;;;3.90;0.90;;;;;;;5.92;100.00;95933.38;18242187;32;20074;-64
2022/11/22 00:58:46;;;;;;;4.77;0.83;;;;;;;5.98;100.00;95934.19;18209424;32;20074;-64
2022/11/22 01:42:05;;;;;;;3.80;1.03;;;;;;;5.85;100.00;95967.78;18369094;32;20065;-64
2022/11/22 02:15:10;;;;;;;3.20;0.83;;;;;;;5.71;100.00;95975.69;18162977;32;20063;-63
2022/11/22 02:47:30;;;;;;;2.77;0.90;;;;;;;5.66;100.00;96000.66;18310720;32;20074;-64
2022/11/22 03:20:20;;;;;;;6.00;1.10;;;;;;;5.52;100.00;95991.63;18377385;32;20362;-64
2022/11/22 03:30:23;;;;;;;6.37;1.13;;;;;;;5.43;100.00;96000.25;18363062;32;20062;-64
2022/11/22 03:40:26;;;;;;;4.57;0.90;;;;;;;5.47;100.00;96005.88;18376364;32;20065;-64
2022/11/22 03:50:30;;;;;;;5.30;0.80;;;;;;;5.54;100.00;96003.69;18376107;32;20049;-64
2022/11/22 04:00:33;;;;;;;5.20;1.13;;;;;;;5.60;100.00;96004.44;18373693;32;20073;-64
2022/11/22 04:11:18;;;;;;;4.37;1.10;;;;;;;5.59;100.00;96014.37;18374151;32;20366;-64
2022/11/22 04:53:19;;;;;;;3.47;0.70;;;;;;;5.30;100.00;96041.06;18347060;32;20061;-64
2022/11/22 05:14:45;;;;;;;2.47;1.00;;;;;;;5.03;100.00;96066.38;18370290;32;20053;-64
2022/11/22 05:24:48;;;;;;;3.53;0.43;;;;;;;4.99;100.00;96078.72;18369996;32;20070;-64
2022/11/22 05:34:51;;;;;;;7.13;1.00;;;;;;;4.91;100.00;96084.66;18369522;32;20111;-64
2022/11/22 05:44:53;;;;;;;2.73;0.50;;;;;;;4.79;100.00;96087.62;18368960;32;20418;-64
2022/11/22 05:55:06;;;;;;;2.67;0.50;;;;;;;4.70;100.00;96099.94;18368783;32;20378;-64
2022/11/22 06:05:08;;;;;;;3.87;0.83;;;;;;;4.58;100.00;96097.56;18368608;32;20100;-63
2022/11/22 06:15:25;;;;;;;2.07;0.50;;;;;;;4.49;100.00;96110.69;18367680;32;20050;-64
2022/11/22 06:47:47;;;;;;;6.73;0.87;;;;;;;4.20;100.00;96113.09;18361348;32;20058;-64
2022/11/22 06:57:50;;;;;;;3.93;0.57;;;;;;;4.13;100.00;96132.09;18366362;32;20106;-64
2022/11/22 07:07:55;;;;;;;5.13;1.00;;;;;;;4.06;100.00;96155.62;18334818;32;20073;-63
2022/11/22 07:29:49;;;;;;;2.40;0.60;;;;;;;4.09;100.00;96189.87;18362571;32;20054;-64
2022/11/22 07:39:53;;;;;;;3.83;0.60;;;;;;;4.21;100.00;96189.63;18376568;32;20069;-64
2022/11/22 07:49:56;;;;;;;3.53;0.60;;;;;;;4.33;100.00;96203.56;18375738;32;20058;-64
2022/11/22 07:59:58;;;;;;;5.33;0.80;;;;;;;4.46;100.00;96217.47;18373883;32;20053;-64
2022/11/22 08:10:01;;;;;;;2.23;0.60;;;;;;;4.66;100.00;96209.47;18374686;32;20070;-64
2022/11/22 08:20:07;;;;;;;1.30;0.40;;;;;;;4.86;100.00;96216.66;18373982;32;20484;-64
2022/11/22 08:30:11;;;;;;;1.17;0.40;;;;;;;5.09;100.00;96220.66;18371853;32;20069;-64
2022/11/22 08:40:14;;;;;;;3.57;0.60;;;;;;;5.37;100.00;96215.81;18371138;32;20102;-64
2022/11/22 08:50:18;;;;;;;3.27;0.40;;;;;;;5.70;100.00;96232.31;18345195;32;20045;-64
2022/11/22 09:00:21;;;;;;;1.90;0.67;;;;;;;6.00;100.00;96211.84;18371673;32;20432;-64
2022/11/22 09:10:24;;;;;;;1.17;0.50;;;;;;;6.30;100.00;96218.09;18370997;32;20095;-64
2022/11/22 09:20:28;;;;;;;2.60;0.63;;;;;;;6.69;100.00;96219.19;18370160;32;20361;-64
2022/11/22 09:30:31;;;;;;;4.70;0.57;;;;;;;6.97;100.00;96225.66;18362814;32;20071;-64
2022/11/22 10:03:42;;;;;;;3.13;0.53;;;;;;;7.04;100.00;96260.25;18368266;32;20461;-64
2022/11/22 10:13:58;;;;;;;2.47;0.30;;;;;;;6.97;94.41;96270.53;18317377;32;20477;-64
2022/11/22 10:24:15;;;;;;;1.37;0.47;;;;;;;6.94;94.73;96275.38;18359394;32;20050;-64
2022/11/22 10:34:24;;;;;;;0.37;0.20;;;;;;;7.43;94.14;96273.63;18367341;32;20072;-64
2022/11/22 10:44:55;;;;;;;1.63;0.43;;;;;;;8.07;91.62;96262.72;18355183;32;20054;-64
2022/11/22 10:55:36;;;;;;;0.77;0.20;;;;;;;8.34;88.13;96253.19;18366955;32;20083;-65
2022/11/22 11:17:28;;;;;;;0.57;0.10;;;;;;;8.34;87.63;96255.09;18371222;32;20058;-64
2022/11/22 11:27:32;;;;;;;1.57;0.27;;;;;;;8.42;83.83;96244.47;18377523;32;20046;-64
2022/11/22 11:38:02;;;;;;;0.77;0.17;;;;;;;8.74;83.26;96236.75;18376245;32;20114;-64
2022/11/22 11:59:44;;;;;;;1.13;0.20;;;;;;;9.00;82.29;96237.16;18374887;32;20062;-64
2022/11/22 12:09:49;;;;;;;0.40;0.10;;;;;;;9.09;85.90;96229.22;18373654;32;20396;-64
2022/11/22 12:31:18;;;;;;;1.93;0.30;;;;;;;9.27;80.75;96204.06;17989453;32;20103;-64
2022/11/22 12:52:41;;;;;;;1.03;0.30;;;;;;;9.75;78.13;96184.00;17988075;33;20087;-64
2022/11/22 13:14:14;;;;;;;2.23;0.17;;;;;;;9.84;79.81;96179.50;18370749;32;20098;-64
2022/11/22 13:25:11;;;;;;;2.20;0.30;;;;;;;9.56;80.91;96159.03;18370605;32;20053;-64
2022/11/22 13:35:14;;;;;;;0.53;0.20;;;;;;;9.18;79.52;96175.37;18355368;32;20383;-65
2022/11/22 13:56:38;;;;;;;1.40;0.37;;;;;;;8.80;81.06;96176.31;18368625;32;20066;-64
2022/11/22 14:07:08;;;;;;;1.73;0.40;;;;;;;8.92;83.47;96156.97;18366420;32;20467;-64
2022/11/22 14:17:52;;;;;;;2.17;0.30;;;;;;;9.09;82.80;96165.28;18368297;32;20390;-64
2022/11/22 14:28:22;;;;;;;1.23;0.20;;;;;;;9.02;79.33;96170.28;18367512;32;20074;-64
2022/11/22 14:38:31;;;;;;;3.00;0.43;;;;;;;8.98;82.22;96171.97;18368151;32;20487;-64
2022/11/22 14:48:59;;;;;;;1.73;0.40;;;;;;;8.82;79.35;96172.22;18380048;32;20154;-64
2022/11/22 15:09:50;;;;;;;1.53;0.27;;;;;;;8.64;80.01;96206.19;18250730;32;20062;-64
2022/11/22 15:19:56;;;;;;;4.15;0.73;;;;;;;8.60;80.85;96213.25;18250969;32;20413;-64
2022/11/22 15:41:33;;;;;;;2.03;0.70;;;;;;;8.46;78.65;96229.34;18249660;32;20058;-64
2022/11/22 15:51:58;;;;;;;1.20;0.30;;;;;;;8.17;81.04;96229.47;18249052;32;20417;-64
2022/11/22 16:02:24;;;;;;;1.70;0.40;;;;;;;7.87;81.99;96247.59;18246249;32;20078;-64
2022/11/22 16:12:54;;;;;;;4.63;0.50;;;;;;;7.59;85.29;96268.91;18247967;32;20066;-64
2022/11/22 16:23:14;;;;;;;0.83;0.47;;;;;;;7.40;86.40;96284.94;18247168;32;20104;-65
2022/11/22 16:33:17;;;;;;;0.60;0.20;;;;;;;7.24;85.96;96296.94;18246503;32;20420;-65
2022/11/22 16:43:23;;;;;;;1.07;0.30;;;;;;;7.12;87.05;96302.66;18244380;32;20062;-65
2022/11/22 16:53:42;;;;;;;1.43;0.50;;;;;;;7.02;87.61;96300.88;18244289;32;20066;-65
2022/11/22 17:03:47;;;;;;;1.53;0.33;;;;;;;6.89;89.50;96313.06;18243860;32;20423;-65
2022/11/22 17:13:50;;;;;;;1.33;0.30;;;;;;;6.77;92.73;96305.34;18244306;32;20054;-64
2022/11/22 17:23:59;;;;;;;3.47;0.63;;;;;;;6.58;96.57;96323.19;18230056;32;20058;-65
2022/11/22 17:34:29;;;;;;;1.42;0.30;;;;;;;6.24;98.99;96335.41;18209911;32;20058;-65
2022/11/22 17:44:32;;;;;;;1.60;0.40;;;;;;;6.00;100.00;96359.41;18216795;32;20061;-65
2022/11/22 17:54:37;;;;;;;2.33;0.60;;;;;;;5.93;100.00;96353.47;18241577;32;20061;-65
2022/11/22 18:04:46;;;;;;;4.53;0.53;;;;;;;5.88;100.00;96340.06;18239934;32;20105;-65
2022/11/22 18:14:49;;;;;;;1.87;0.80;;;;;;;5.83;100.00;96345.47;18240329;32;20565;-64
2022/11/22 18:24:51;;;;;;;2.50;0.60;;;;;;;5.83;100.00;96356.19;18239477;32;20503;-65
2022/11/22 18:34:54;;;;;;;1.47;0.60;;;;;;;5.80;100.00;96356.72;18226469;32;20066;-65
2022/11/22 18:44:57;;;;;;;0.97;0.40;;;;;;;5.81;100.00;96352.97;18240112;32;20054;-66
2022/11/22 18:55:00;;;;;;;1.33;0.60;;;;;;;5.81;100.00;96358.31;18238786;32;20055;-65
2022/11/22 19:05:04;;;;;;;1.57;0.60;;;;;;;5.80;100.00;96365.56;18239519;32;20062;-65
2022/11/22 19:15:07;;;;;;;0.40;0.20;;;;;;;5.81;100.00;96374.41;18239229;32;20477;-65
2022/11/22 19:25:11;;;;;;;0.60;0.30;;;;;;;5.75;100.00;96387.03;18241033;32;20492;-65
2022/11/22 19:35:14;;;;;;;1.10;0.50;;;;;;;5.66;100.00;96383.28;18250738;32;20385;-65
2022/11/22 19:45:17;;;;;;;1.43;0.50;;;;;;;5.53;100.00;96400.72;18249457;32;20084;-65
2022/11/22 19:55:20;;;;;;;1.50;0.30;;;;;;;5.37;100.00;96402.59;18249001;32;20106;-64
2022/11/22 20:05:24;;;;;;;0.27;0.20;;;;;;;5.35;100.00;96408.22;18247160;32;20078;-65
2022/11/22 20:15:27;;;;;;;1.30;0.40;;;;;;;5.36;100.00;96412.53;18247737;32;20066;-65
2022/11/22 20:25:30;;;;;;;1.10;0.40;;;;;;;5.38;100.00;96420.28;18247124;32;20077;-64
2022/11/22 20:35:33;;;;;;;4.00;0.60;;;;;;;5.38;100.00;96423.78;18245452;32;20117;-64
2022/11/22 20:45:36;;;;;;;0.70;0.20;;;;;;;5.41;100.00;96422.44;18245625;32;20417;-64
2022/11/22 20:55:40;;;;;;;1.40;0.40;;;;;;;5.42;100.00;96424.84;18245346;32;20102;-64
2022/11/22 21:05:50;;;;;;;0.63;0.30;;;;;;;5.42;100.00;96435.56;18230284;32;20107;-65
2022/11/22 21:16:05;;;;;;;1.93;0.40;;;;;;;5.42;100.00;96437.44;18243649;32;20088;-65
2022/11/22 21:26:25;;;;;;;2.73;0.50;;;;;;;5.41;100.00;96455.44;18243011;32;20066;-64
2022/11/22 21:36:28;;;;;;;1.93;0.60;;;;;;;5.40;100.00;96443.09;18242408;32;20070;-65
2022/11/22 21:46:31;;;;;;;2.10;0.83;;;;;;;5.39;100.00;96449.50;18228723;32;20050;-65
2022/11/22 21:56:35;;;;;;;2.37;1.00;;;;;;;5.38;100.00;96460.50;18241917;32;20066;-64
2022/11/22 22:06:39;;;;;;;2.07;1.00;;;;;;;5.35;100.00;96464.50;18241145;32;20055;-65
2022/11/22 22:16:47;;;;;;;3.60;1.40;;;;;;;5.35;100.00;96467.19;18227687;32;20070;-65
2022/11/22 22:26:50;;;;;;;4.27;1.33;;;;;;;5.35;100.00;96474.44;18240545;32;20146;-64
2022/11/22 22:36:54;;;;;;;4.97;1.27;;;;;;;5.34;100.00;96470.16;18240368;32;20073;-65
2022/11/22 22:46:58;;;;;;;3.57;1.77;;;;;;;5.32;100.00;96475.78;18240030;32;20096;-65
2022/11/22 22:57:01;;;;;;;3.33;1.70;;;;;;;5.32;100.00;96470.41;18238572;32;20058;-65
2022/11/22 23:07:04;;;;;;;4.97;1.60;;;;;;;5.29;100.00;96470.94;18249824;32;20055;-65
2022/11/22 23:17:11;;;;;;;;;;;;;;;5.19;100.00;96470.91;18251647;32;20086;-63
2022/11/22 23:27:14;;;;;;;1.17;0.57;;;;;;;4.93;100.00;96473.53;18251357;32;19962;-65
2022/11/22 23:37:17;;;;;;;3.80;0.43;;;;;;;4.81;100.00;96472.94;18250066;32;20058;-64
2022/11/22 23:47:20;;;;;;;1.40;0.47;;;;;;;4.74;100.00;96481.22;18236024;32;20081;-64
2022/11/22 23:57:23;;;;;;;1.63;0.50;;;;;;;4.55;100.00;96476.34;18247800;32;20066;-65
